createdAt,value
2023-03-15T00:03:08.493Z,36.7
2023-03-15T00:08:09.013Z,36.9
2023-03-15T00:13:29.030Z,36.9
2023-03-15T00:18:27.065Z,37
2023-03-15T00:23:27.354Z,37
2023-03-15T00:28:30.548Z,37.1
2023-03-15T00:33:30.636Z,37.2
2023-03-15T00:38:31.361Z,37.2
2023-03-15T00:43:31.808Z,37.2
2023-03-15T00:48:32.466Z,37.3
2023-03-15T00:53:33.004Z,37.3
2023-03-15T00:58:33.655Z,37.3
2023-03-15T01:03:36.730Z,37.4
2023-03-15T01:08:37.461Z,37.4
2023-03-15T01:13:40.380Z,37.4
2023-03-15T01:18:42.168Z,37.4
2023-03-15T01:23:44.991Z,37.4
2023-03-15T01:28:45.608Z,37.4
2023-03-15T01:33:46.135Z,37.5
2023-03-15T01:38:46.761Z,37.5
2023-03-15T01:43:47.586Z,37.5
2023-03-15T01:48:47.812Z,37.6
2023-03-15T01:53:52.810Z,37.6
2023-03-15T01:58:55.320Z,37.5
2023-03-15T02:03:55.366Z,37.7
2023-03-15T02:08:55.688Z,37.5
2023-03-15T02:13:56.229Z,37.5
2023-03-15T02:19:05.502Z,37.6
2023-03-15T02:24:16.650Z,37.6
2023-03-15T02:29:16.149Z,37.7
2023-03-15T02:34:19.298Z,37.6
2023-03-15T02:39:21.960Z,37.5
2023-03-15T02:44:22.132Z,37.6
2023-03-15T02:49:22.598Z,37.6
2023-03-15T02:54:23.038Z,37.5
2023-03-15T02:59:23.460Z,37.6
2023-03-15T03:04:23.945Z,37.6
2023-03-15T03:09:27.275Z,37.6
2023-03-15T03:14:27.049Z,37.6
2023-03-15T03:19:27.529Z,37.6
2023-03-15T03:24:28.259Z,37.6
2023-03-15T03:29:28.935Z,37.5
2023-03-15T03:34:29.607Z,37.5
2023-03-15T03:39:30.175Z,37.7
2023-03-15T03:44:30.354Z,37.6
2023-03-15T03:49:30.954Z,37.6
2023-03-15T03:54:31.598Z,37.6
2023-03-15T03:59:32.319Z,37.6
2023-03-15T04:04:34.555Z,37.5
2023-03-15T04:09:34.565Z,37.5
2023-03-15T04:14:34.922Z,37.6
2023-03-15T04:19:36.028Z,37.4
2023-03-15T04:24:36.738Z,37.4
2023-03-15T04:29:48.546Z,37.6
2023-03-15T04:39:47.312Z,37.5
2023-03-15T04:44:48.169Z,37.4
2023-03-15T04:49:48.736Z,37.4
2023-03-15T04:54:52.185Z,37.4
2023-03-15T04:59:52.322Z,37.5
2023-03-15T05:04:52.907Z,37.3
2023-03-15T05:10:12.757Z,37.4
2023-03-15T05:15:10.910Z,37.1
2023-03-15T05:20:11.371Z,37.1
2023-03-15T05:25:11.840Z,37.3
2023-03-15T05:30:12.269Z,37.5
2023-03-15T05:35:12.912Z,37.4
2023-03-15T05:40:13.354Z,37.4
2023-03-15T05:45:16.609Z,37.5
2023-03-15T05:50:16.731Z,37.5
2023-03-15T05:55:17.241Z,37.6
2023-03-15T06:00:17.951Z,37.6
2023-03-15T06:05:18.536Z,37.6
2023-03-15T06:10:19.207Z,37.7
2023-03-15T06:15:19.767Z,37.6
2023-03-15T06:20:20.508Z,37.4
2023-03-15T06:25:20.908Z,37.3
2023-03-15T06:30:24.068Z,37.4
2023-03-15T06:35:23.838Z,37.2
2023-03-15T06:40:24.305Z,37.2
2023-03-15T06:45:24.686Z,37.1
2023-03-15T06:50:27.594Z,37
2023-03-15T06:55:28.634Z,36.9
2023-03-15T07:00:31.330Z,37.2
2023-03-15T07:05:31.389Z,37
2023-03-15T07:10:31.979Z,37
2023-03-15T07:15:32.394Z,37.3
2023-03-15T07:20:41.808Z,37.3
2023-03-15T07:25:52.255Z,37.1
2023-03-15T07:30:41.755Z,37.3
2023-03-15T07:35:42.440Z,37.4
2023-03-15T07:40:43.100Z,37.3
2023-03-15T07:45:43.713Z,37.3
2023-03-15T07:50:44.367Z,37.3
2023-03-15T07:55:44.975Z,37.4
2023-03-15T08:00:47.262Z,37.6
2023-03-15T08:05:47.349Z,37.3
2023-03-15T08:10:47.926Z,37.2
2023-03-15T08:15:48.417Z,37.3
2023-03-15T08:20:49.067Z,37.2
2023-03-15T08:25:48.536Z,37.2
2023-03-15T08:30:51.848Z,37.2
2023-03-15T08:35:52.002Z,37.2
2023-03-15T08:40:52.612Z,37.1
2023-03-15T08:46:01.802Z,37.2
2023-03-15T08:50:53.825Z,37.4
2023-03-15T08:55:56.979Z,37.4
2023-03-15T09:00:59.795Z,37.4
2023-03-15T09:05:59.774Z,37.3
2023-03-15T09:11:00.226Z,37.3
2023-03-15T09:16:00.795Z,37.2
2023-03-15T09:21:01.205Z,37.2
2023-03-15T09:26:01.796Z,37.1
2023-03-15T09:31:02.528Z,36.8
2023-03-15T09:36:02.951Z,37
2023-03-15T09:41:03.586Z,37
2023-03-15T09:46:04.115Z,36.9
2023-03-15T09:51:04.742Z,37.1
2023-03-15T09:56:05.072Z,37.2
2023-03-15T10:01:08.498Z,37
2023-03-15T10:06:08.284Z,37
2023-03-15T10:11:08.887Z,37
2023-03-15T10:16:12.100Z,37.1
2023-03-15T10:21:12.409Z,37.2
2023-03-15T10:26:15.560Z,37
2023-03-15T10:31:21.453Z,37.2
2023-03-15T10:36:16.027Z,37.2
2023-03-15T10:41:27.086Z,37.1
2023-03-15T10:46:19.251Z,37.2
2023-03-15T10:51:19.872Z,37.2
2023-03-15T10:56:20.218Z,37.1
2023-03-15T11:01:23.593Z,36.9
2023-03-15T11:06:23.539Z,36.5
2023-03-15T11:11:24.207Z,31.2
2023-03-15T11:16:27.518Z,30.9
2023-03-15T11:21:27.595Z,30.7
2023-03-15T11:26:32.926Z,31.2
2023-03-15T11:31:30.892Z,31
2023-03-15T11:36:31.507Z,31.7
2023-03-15T11:41:32.125Z,30.7
2023-03-15T11:46:35.282Z,32.2
2023-03-15T11:51:35.432Z,32.5
2023-03-15T11:56:35.944Z,32.2
2023-03-15T12:01:36.375Z,32.2
2023-03-15T12:06:37.018Z,32.2
2023-03-15T12:11:37.648Z,31.4
2023-03-15T12:16:38.242Z,31.2
2023-03-15T12:21:38.929Z,31.5
2023-03-15T12:26:39.745Z,31.3
2023-03-15T12:31:40.059Z,30.8
2023-03-15T12:36:40.267Z,32.6
2023-03-15T12:41:41.022Z,31.9
2023-03-15T12:46:41.464Z,32.8
2023-03-15T12:51:42.085Z,32.1
2023-03-15T12:56:45.139Z,32
2023-03-15T13:01:45.554Z,33.6
2023-03-15T13:06:48.873Z,34.7
2023-03-15T13:11:53.139Z,35.3
2023-03-15T13:16:53.112Z,36.3
2023-03-15T13:21:53.544Z,36.5
2023-03-15T13:26:55.736Z,36.7
2023-03-15T13:31:56.221Z,37.6
2023-03-15T13:36:56.987Z,37.7
2023-03-15T13:41:55.667Z,38.5
2023-03-15T13:46:56.373Z,38.6
2023-03-15T13:51:56.873Z,38.1
2023-03-15T13:56:57.461Z,38.8
2023-03-15T14:01:58.154Z,39.3
2023-03-15T14:06:58.528Z,39.7
2023-03-15T14:12:02.039Z,38.1
2023-03-15T14:17:05.564Z,39.4
2023-03-15T14:22:02.807Z,39.8
2023-03-15T14:27:03.041Z,40.4
2023-03-15T14:32:03.685Z,40.4
2023-03-15T14:37:07.075Z,40.4
2023-03-15T14:42:06.853Z,40.8
2023-03-15T14:47:07.489Z,40.5
2023-03-15T14:52:07.879Z,40.8
2023-03-15T14:57:08.626Z,40.7
2023-03-15T15:02:09.446Z,40.7
2023-03-15T15:07:12.666Z,40.5
2023-03-15T15:12:15.649Z,40.9
2023-03-15T15:17:18.572Z,40.7
2023-03-15T15:22:18.713Z,40.8
2023-03-15T15:27:19.197Z,40.8
2023-03-15T15:32:22.593Z,40.6
2023-03-15T15:37:22.666Z,40.6
2023-03-15T15:42:26.008Z,40.8
2023-03-15T15:47:26.063Z,40.6
2023-03-15T15:52:27.374Z,40.6
2023-03-15T15:57:27.841Z,40.6
2023-03-15T16:02:31.292Z,40.5
2023-03-15T16:07:31.592Z,40.6
2023-03-15T16:12:32.202Z,40.4
2023-03-15T16:17:32.796Z,40.4
2023-03-15T16:22:36.134Z,40.5
2023-03-15T16:27:36.053Z,40.4
2023-03-15T16:32:44.296Z,40.4
2023-03-15T16:37:37.357Z,40.4
2023-03-15T16:42:37.886Z,40.3
2023-03-15T16:47:39.385Z,40.3
2023-03-15T16:52:39.828Z,40.2
2023-03-15T16:57:40.506Z,40.1
2023-03-15T17:02:41.125Z,40.1
2023-03-15T17:07:41.840Z,39.5
2023-03-15T17:12:45.069Z,39.9
2023-03-15T17:17:45.202Z,39.8
2023-03-15T17:22:45.768Z,40.1
2023-03-15T17:27:46.248Z,39.9
2023-03-15T17:32:49.695Z,39.9
2023-03-15T17:37:49.681Z,40.1
2023-03-15T17:42:50.303Z,39.6
2023-03-15T17:47:50.855Z,39.7
2023-03-15T17:52:54.509Z,40.1
2023-03-15T17:57:55.709Z,39.7
2023-03-15T18:02:57.944Z,40.2
2023-03-15T18:08:00.947Z,39.6
2023-03-15T18:13:01.116Z,39.9
2023-03-15T18:18:01.525Z,40
2023-03-15T18:23:02.147Z,40.3
2023-03-15T18:28:02.714Z,40.3
2023-03-15T18:33:11.663Z,40.3
2023-03-15T18:38:10.873Z,40.2
2023-03-15T18:43:11.327Z,40.2
2023-03-15T18:48:11.937Z,40.3
2023-03-15T18:53:12.671Z,40.6
2023-03-15T18:58:13.238Z,40.8
2023-03-15T19:03:16.459Z,40.7
2023-03-15T19:08:16.457Z,40.8
2023-03-15T19:13:17.904Z,41.2
2023-03-15T19:18:18.092Z,41
2023-03-15T19:23:18.757Z,41.6
2023-03-15T19:28:22.172Z,41.6
2023-03-15T19:33:22.205Z,41.6
2023-03-15T19:38:22.592Z,41.7
2023-03-15T19:43:23.220Z,41.7
2023-03-15T19:48:24.570Z,41.7
2023-03-15T19:53:26.050Z,41.5
2023-03-15T19:58:27.224Z,41.9
2023-03-15T20:03:27.752Z,41.8
2023-03-15T20:08:28.114Z,41.8
2023-03-15T20:13:29.661Z,41.8
2023-03-15T20:18:32.724Z,42
2023-03-15T20:23:32.947Z,42.2
2023-03-15T20:28:33.553Z,42.1
2023-03-15T20:33:34.270Z,42
2023-03-15T20:38:34.951Z,42.1
2023-03-15T20:43:35.418Z,42.1
2023-03-15T20:48:35.911Z,42.2
2023-03-15T20:53:36.572Z,42.2
2023-03-15T20:58:36.912Z,42.3
2023-03-15T21:03:40.344Z,42.2
2023-03-15T21:08:40.248Z,42.2
2023-03-15T21:13:40.793Z,42.1
2023-03-15T21:18:41.196Z,42.1
2023-03-15T21:23:41.730Z,42
2023-03-15T21:28:42.228Z,42
2023-03-15T21:33:42.687Z,41.9
2023-03-15T21:38:44.065Z,41.9
2023-03-15T21:43:44.587Z,41.9
2023-03-15T21:48:45.253Z,41.8
2023-03-15T21:53:45.627Z,41.8
2023-03-15T21:58:46.456Z,41.7
2023-03-15T22:03:46.929Z,41.9
2023-03-15T22:08:47.522Z,41.7
2023-03-15T22:13:48.204Z,41.6
2023-03-15T22:18:51.687Z,41.7
2023-03-15T22:23:51.974Z,41.5
2023-03-15T22:28:52.186Z,41.6
2023-03-15T22:33:52.819Z,41.5
2023-03-15T22:38:53.180Z,41.6
2023-03-15T22:43:53.809Z,41.5
2023-03-15T22:48:55.361Z,41.5
2023-03-15T22:53:55.374Z,41.5
2023-03-15T22:58:56.041Z,41.5
2023-03-15T23:03:56.537Z,41.1
2023-03-15T23:08:56.901Z,41.4
2023-03-15T23:13:57.623Z,41.2
2023-03-15T23:18:58.115Z,41.3
2023-03-15T23:23:58.805Z,41
2023-03-15T23:28:59.514Z,41.1
2023-03-15T23:34:00.127Z,41
2023-03-15T23:39:00.754Z,40.9
2023-03-15T23:44:01.221Z,40.6
2023-03-15T23:49:01.884Z,40.8
2023-03-15T23:54:02.362Z,40.9
2023-03-15T23:59:03.085Z,40.8
